sensor_id;sensor_type;location;lat;lon;timestamp;temperature;humidity
16736;DHT22;17990;49.548;9.730;2023-08-30T00:00:49;13.60;99.90
16736;DHT22;17990;49.548;9.730;2023-08-30T00:03:15;13.60;99.90
16736;DHT22;17990;49.548;9.730;2023-08-30T00:05:42;13.50;99.90
16736;DHT22;17990;49.548;9.730;2023-08-30T00:08:09;13.50;99.90
16736;DHT22;17990;49.548;9.730;2023-08-30T00:10:36;13.50;99.90
16736;DHT22;17990;49.548;9.730;2023-08-30T00:13:04;13.40;99.90
16736;DHT22;17990;49.548;9.730;2023-08-30T00:15:31;13.40;99.90
16736;DHT22;17990;49.548;9.730;2023-08-30T00:17:58;13.40;99.90
16736;DHT22;17990;49.548;9.730;2023-08-30T00:20:25;13.50;99.90
16736;DHT22;17990;49.548;9.730;2023-08-30T00:22:52;13.50;99.90
16736;DHT22;17990;49.548;9.730;2023-08-30T00:25:20;13.50;99.90
16736;DHT22;17990;49.548;9.730;2023-08-30T00:27:46;13.50;99.90
16736;DHT22;17990;49.548;9.730;2023-08-30T00:30:14;13.50;99.90
16736;DHT22;17990;49.548;9.730;2023-08-30T00:32:41;13.50;99.90
16736;DHT22;17990;49.548;9.730;2023-08-30T00:35:08;13.60;99.90
16736;DHT22;17990;49.548;9.730;2023-08-30T00:37:35;13.50;99.90
16736;DHT22;17990;49.548;9.730;2023-08-30T00:40:02;13.50;99.90
16736;DHT22;17990;49.548;9.730;2023-08-30T00:42:29;13.50;99.90
16736;DHT22;17990;49.548;9.730;2023-08-30T00:44:55;13.50;99.90
16736;DHT22;17990;49.548;9.730;2023-08-30T00:47:23;13.40;99.90
16736;DHT22;17990;49.548;9.730;2023-08-30T00:49:51;13.40;99.90
16736;DHT22;17990;49.548;9.730;2023-08-30T00:52:17;13.30;99.90
16736;DHT22;17990;49.548;9.730;2023-08-30T00:54:44;13.30;99.90
16736;DHT22;17990;49.548;9.730;2023-08-30T00:57:12;13.30;99.90
16736;DHT22;17990;49.548;9.730;2023-08-30T00:59:39;13.30;99.90
16736;DHT22;17990;49.548;9.730;2023-08-30T01:02:05;13.20;99.90
16736;DHT22;17990;49.548;9.730;2023-08-30T01:04:33;13.20;99.90
16736;DHT22;17990;49.548;9.730;2023-08-30T01:07:00;13.20;99.90
16736;DHT22;17990;49.548;9.730;2023-08-30T01:09:27;13.10;99.90
16736;DHT22;17990;49.548;9.730;2023-08-30T01:11:58;13.10;99.90
16736;DHT22;17990;49.548;9.730;2023-08-30T01:14:31;13.10;99.90
16736;DHT22;17990;49.548;9.730;2023-08-30T01:17:01;13.10;99.90
16736;DHT22;17990;49.548;9.730;2023-08-30T01:19:46;13.10;99.90
16736;DHT22;17990;49.548;9.730;2023-08-30T01:22:19;13.00;99.90
16736;DHT22;17990;49.548;9.730;2023-08-30T01:24:56;12.90;99.90
16736;DHT22;17990;49.548;9.730;2023-08-30T01:27:26;12.90;99.90
16736;DHT22;17990;49.548;9.730;2023-08-30T01:29:57;12.80;99.90
16736;DHT22;17990;49.548;9.730;2023-08-30T01:32:25;12.80;99.90
16736;DHT22;17990;49.548;9.730;2023-08-30T01:34:54;12.80;99.90
16736;DHT22;17990;49.548;9.730;2023-08-30T01:37:21;12.70;99.90
16736;DHT22;17990;49.548;9.730;2023-08-30T01:39:49;12.70;99.90
16736;DHT22;17990;49.548;9.730;2023-08-30T01:42:16;12.70;99.90
16736;DHT22;17990;49.548;9.730;2023-08-30T01:44:49;12.70;99.90
16736;DHT22;17990;49.548;9.730;2023-08-30T01:47:20;12.70;99.90
16736;DHT22;17990;49.548;9.730;2023-08-30T01:49:47;12.80;99.90
16736;DHT22;17990;49.548;9.730;2023-08-30T01:52:15;12.80;99.90
16736;DHT22;17990;49.548;9.730;2023-08-30T01:54:44;12.80;99.90
16736;DHT22;17990;49.548;9.730;2023-08-30T01:57:11;12.90;99.90
16736;DHT22;17990;49.548;9.730;2023-08-30T01:59:38;12.90;99.90
16736;DHT22;17990;49.548;9.730;2023-08-30T02:02:06;12.90;99.90
16736;DHT22;17990;49.548;9.730;2023-08-30T02:04:33;13.00;99.90
16736;DHT22;17990;49.548;9.730;2023-08-30T02:07:02;13.00;99.90
16736;DHT22;17990;49.548;9.730;2023-08-30T02:09:34;13.00;99.90
16736;DHT22;17990;49.548;9.730;2023-08-30T02:12:07;13.00;99.90
16736;DHT22;17990;49.548;9.730;2023-08-30T02:14:37;12.90;99.90
16736;DHT22;17990;49.548;9.730;2023-08-30T02:17:06;12.90;99.90
16736;DHT22;17990;49.548;9.730;2023-08-30T02:19:34;12.80;99.90
16736;DHT22;17990;49.548;9.730;2023-08-30T02:22:00;12.80;99.90
16736;DHT22;17990;49.548;9.730;2023-08-30T02:24:28;12.80;99.90
16736;DHT22;17990;49.548;9.730;2023-08-30T02:26:55;12.80;99.90
16736;DHT22;17990;49.548;9.730;2023-08-30T02:29:22;12.80;99.90
16736;DHT22;17990;49.548;9.730;2023-08-30T02:31:49;12.80;99.90
16736;DHT22;17990;49.548;9.730;2023-08-30T02:34:17;12.90;99.90
16736;DHT22;17990;49.548;9.730;2023-08-30T02:36:44;12.90;99.90
16736;DHT22;17990;49.548;9.730;2023-08-30T02:39:11;12.90;99.90
16736;DHT22;17990;49.548;9.730;2023-08-30T02:41:38;12.90;99.90
16736;DHT22;17990;49.548;9.730;2023-08-30T02:44:07;13.00;99.90
16736;DHT22;17990;49.548;9.730;2023-08-30T02:46:34;13.00;99.90
16736;DHT22;17990;49.548;9.730;2023-08-30T02:49:03;13.00;99.90
16736;DHT22;17990;49.548;9.730;2023-08-30T02:51:31;13.00;99.90
16736;DHT22;17990;49.548;9.730;2023-08-30T02:53:57;13.10;99.90
16736;DHT22;17990;49.548;9.730;2023-08-30T02:56:24;13.10;99.90
16736;DHT22;17990;49.548;9.730;2023-08-30T02:58:51;13.10;99.90
16736;DHT22;17990;49.548;9.730;2023-08-30T03:01:18;13.10;99.90
16736;DHT22;17990;49.548;9.730;2023-08-30T03:03:45;13.20;99.90
16736;DHT22;17990;49.548;9.730;2023-08-30T03:06:12;13.20;99.90
16736;DHT22;17990;49.548;9.730;2023-08-30T03:08:40;13.20;99.90
16736;DHT22;17990;49.548;9.730;2023-08-30T03:11:08;13.20;99.90
16736;DHT22;17990;49.548;9.730;2023-08-30T03:13:35;13.20;99.90
16736;DHT22;17990;49.548;9.730;2023-08-30T03:16:09;13.20;99.90
16736;DHT22;17990;49.548;9.730;2023-08-30T03:18:36;13.10;99.90
16736;DHT22;17990;49.548;9.730;2023-08-30T03:21:03;13.20;99.90
16736;DHT22;17990;49.548;9.730;2023-08-30T03:23:30;13.20;99.90
16736;DHT22;17990;49.548;9.730;2023-08-30T03:25:59;13.20;99.90
16736;DHT22;17990;49.548;9.730;2023-08-30T03:28:26;13.20;99.90
16736;DHT22;17990;49.548;9.730;2023-08-30T03:30:53;13.20;99.90
16736;DHT22;17990;49.548;9.730;2023-08-30T03:33:20;13.20;99.90
16736;DHT22;17990;49.548;9.730;2023-08-30T03:35:46;13.20;99.90
16736;DHT22;17990;49.548;9.730;2023-08-30T03:38:13;13.20;99.90
16736;DHT22;17990;49.548;9.730;2023-08-30T03:40:40;13.20;99.90
16736;DHT22;17990;49.548;9.730;2023-08-30T03:43:08;13.20;99.90
16736;DHT22;17990;49.548;9.730;2023-08-30T03:45:35;13.10;99.90
16736;DHT22;17990;49.548;9.730;2023-08-30T03:48:02;13.10;99.90
16736;DHT22;17990;49.548;9.730;2023-08-30T03:50:29;13.20;99.90
16736;DHT22;17990;49.548;9.730;2023-08-30T03:52:56;13.20;99.90
16736;DHT22;17990;49.548;9.730;2023-08-30T03:55:23;13.10;99.90
16736;DHT22;17990;49.548;9.730;2023-08-30T03:57:49;13.20;99.90
16736;DHT22;17990;49.548;9.730;2023-08-30T04:00:17;13.10;99.90
16736;DHT22;17990;49.548;9.730;2023-08-30T04:02:44;13.20;99.90
16736;DHT22;17990;49.548;9.730;2023-08-30T04:05:11;13.10;99.90
16736;DHT22;17990;49.548;9.730;2023-08-30T04:07:38;13.10;99.90
16736;DHT22;17990;49.548;9.730;2023-08-30T04:10:05;13.10;99.90
16736;DHT22;17990;49.548;9.730;2023-08-30T04:12:32;13.00;99.90
16736;DHT22;17990;49.548;9.730;2023-08-30T04:15:00;13.00;99.90
16736;DHT22;17990;49.548;9.730;2023-08-30T04:17:28;13.10;99.90
16736;DHT22;17990;49.548;9.730;2023-08-30T04:19:55;13.10;99.90
16736;DHT22;17990;49.548;9.730;2023-08-30T04:22:22;13.10;99.90
16736;DHT22;17990;49.548;9.730;2023-08-30T04:24:49;13.10;99.90
16736;DHT22;17990;49.548;9.730;2023-08-30T04:27:16;13.10;99.90
16736;DHT22;17990;49.548;9.730;2023-08-30T04:29:42;13.10;99.90
16736;DHT22;17990;49.548;9.730;2023-08-30T04:32:10;13.10;99.90
16736;DHT22;17990;49.548;9.730;2023-08-30T04:34:38;13.20;99.90
16736;DHT22;17990;49.548;9.730;2023-08-30T04:37:05;13.20;99.90
16736;DHT22;17990;49.548;9.730;2023-08-30T04:39:32;13.20;99.90
16736;DHT22;17990;49.548;9.730;2023-08-30T04:41:59;13.20;99.90
16736;DHT22;17990;49.548;9.730;2023-08-30T04:44:26;13.30;99.90
16736;DHT22;17990;49.548;9.730;2023-08-30T04:46:53;13.30;99.90
16736;DHT22;17990;49.548;9.730;2023-08-30T04:49:21;13.20;99.90
16736;DHT22;17990;49.548;9.730;2023-08-30T04:51:49;13.30;99.90
16736;DHT22;17990;49.548;9.730;2023-08-30T04:54:15;13.30;99.90
16736;DHT22;17990;49.548;9.730;2023-08-30T04:56:42;13.40;99.90
16736;DHT22;17990;49.548;9.730;2023-08-30T04:59:09;13.40;99.90
16736;DHT22;17990;49.548;9.730;2023-08-30T05:01:36;13.50;99.90
16736;DHT22;17990;49.548;9.730;2023-08-30T05:04:04;13.60;99.90
16736;DHT22;17990;49.548;9.730;2023-08-30T05:06:32;13.70;99.90
16736;DHT22;17990;49.548;9.730;2023-08-30T05:09:00;13.70;99.90
16736;DHT22;17990;49.548;9.730;2023-08-30T05:11:28;13.80;99.90
16736;DHT22;17990;49.548;9.730;2023-08-30T05:13:54;13.80;99.90
16736;DHT22;17990;49.548;9.730;2023-08-30T05:16:21;13.90;99.90
16736;DHT22;17990;49.548;9.730;2023-08-30T05:18:48;13.90;99.90
16736;DHT22;17990;49.548;9.730;2023-08-30T05:21:15;13.90;99.90
16736;DHT22;17990;49.548;9.730;2023-08-30T05:23:41;14.00;99.90
16736;DHT22;17990;49.548;9.730;2023-08-30T05:26:09;14.10;99.90
16736;DHT22;17990;49.548;9.730;2023-08-30T05:28:38;14.20;99.90
16736;DHT22;17990;49.548;9.730;2023-08-30T05:31:04;14.20;99.90
16736;DHT22;17990;49.548;9.730;2023-08-30T05:33:31;14.40;99.90
16736;DHT22;17990;49.548;9.730;2023-08-30T05:35:58;14.40;99.90
16736;DHT22;17990;49.548;9.730;2023-08-30T05:38:25;14.40;99.90
16736;DHT22;17990;49.548;9.730;2023-08-30T05:40:51;14.50;99.90
16736;DHT22;17990;49.548;9.730;2023-08-30T05:43:19;14.50;99.90
16736;DHT22;17990;49.548;9.730;2023-08-30T05:45:46;14.50;99.90
16736;DHT22;17990;49.548;9.730;2023-08-30T05:48:13;14.60;99.90
16736;DHT22;17990;49.548;9.730;2023-08-30T05:50:40;14.60;99.90
16736;DHT22;17990;49.548;9.730;2023-08-30T05:53:07;14.60;99.90
16736;DHT22;17990;49.548;9.730;2023-08-30T05:55:34;14.60;99.90
16736;DHT22;17990;49.548;9.730;2023-08-30T05:58:00;14.70;99.90
16736;DHT22;17990;49.548;9.730;2023-08-30T06:00:29;14.70;99.90
16736;DHT22;17990;49.548;9.730;2023-08-30T06:02:55;14.70;99.90
16736;DHT22;17990;49.548;9.730;2023-08-30T06:05:22;14.80;99.90
16736;DHT22;17990;49.548;9.730;2023-08-30T06:07:48;14.80;99.90
16736;DHT22;17990;49.548;9.730;2023-08-30T06:10:15;14.80;99.90
16736;DHT22;17990;49.548;9.730;2023-08-30T06:12:42;14.80;99.90
16736;DHT22;17990;49.548;9.730;2023-08-30T06:15:09;14.90;99.90
16736;DHT22;17990;49.548;9.730;2023-08-30T06:17:37;15.00;99.90
16736;DHT22;17990;49.548;9.730;2023-08-30T06:20:05;15.10;99.90
16736;DHT22;17990;49.548;9.730;2023-08-30T06:22:32;15.10;99.90
16736;DHT22;17990;49.548;9.730;2023-08-30T06:24:58;15.20;99.90
16736;DHT22;17990;49.548;9.730;2023-08-30T06:27:25;15.20;99.90
16736;DHT22;17990;49.548;9.730;2023-08-30T06:29:52;15.20;99.90
16736;DHT22;17990;49.548;9.730;2023-08-30T06:32:19;15.30;99.90
16736;DHT22;17990;49.548;9.730;2023-08-30T06:34:47;15.40;99.90
16736;DHT22;17990;49.548;9.730;2023-08-30T06:37:14;15.40;99.90
16736;DHT22;17990;49.548;9.730;2023-08-30T06:39:41;15.50;99.90
16736;DHT22;17990;49.548;9.730;2023-08-30T06:42:07;15.60;99.90
16736;DHT22;17990;49.548;9.730;2023-08-30T06:44:34;15.60;99.90
16736;DHT22;17990;49.548;9.730;2023-08-30T06:47:01;15.70;99.90
16736;DHT22;17990;49.548;9.730;2023-08-30T06:49:28;15.80;99.90
16736;DHT22;17990;49.548;9.730;2023-08-30T06:51:58;16.00;99.90
16736;DHT22;17990;49.548;9.730;2023-08-30T06:54:27;16.00;99.90
16736;DHT22;17990;49.548;9.730;2023-08-30T06:56:58;16.00;99.90
16736;DHT22;17990;49.548;9.730;2023-08-30T06:59:25;16.00;99.90
16736;DHT22;17990;49.548;9.730;2023-08-30T07:01:52;16.20;99.90
16736;DHT22;17990;49.548;9.730;2023-08-30T07:04:19;16.40;99.90
16736;DHT22;17990;49.548;9.730;2023-08-30T07:06:46;16.40;99.90
16736;DHT22;17990;49.548;9.730;2023-08-30T07:09:14;16.60;99.90
16736;DHT22;17990;49.548;9.730;2023-08-30T07:11:42;16.60;99.90
16736;DHT22;17990;49.548;9.730;2023-08-30T07:14:10;16.50;99.90
16736;DHT22;17990;49.548;9.730;2023-08-30T07:16:37;16.60;99.90
16736;DHT22;17990;49.548;9.730;2023-08-30T07:19:04;16.70;99.90
16736;DHT22;17990;49.548;9.730;2023-08-30T07:21:31;16.90;99.90
16736;DHT22;17990;49.548;9.730;2023-08-30T07:23:58;17.00;99.90
16736;DHT22;17990;49.548;9.730;2023-08-30T07:26:26;17.00;99.90
16736;DHT22;17990;49.548;9.730;2023-08-30T07:28:53;17.00;99.90
16736;DHT22;17990;49.548;9.730;2023-08-30T07:31:19;17.10;99.90
16736;DHT22;17990;49.548;9.730;2023-08-30T07:33:47;17.20;99.90
16736;DHT22;17990;49.548;9.730;2023-08-30T07:36:13;17.40;99.90
16736;DHT22;17990;49.548;9.730;2023-08-30T07:38:40;17.70;99.90
16736;DHT22;17990;49.548;9.730;2023-08-30T07:41:07;17.90;99.90
16736;DHT22;17990;49.548;9.730;2023-08-30T07:43:35;17.80;99.90
16736;DHT22;17990;49.548;9.730;2023-08-30T07:46:02;17.80;99.90
16736;DHT22;17990;49.548;9.730;2023-08-30T07:48:28;17.70;99.90
16736;DHT22;17990;49.548;9.730;2023-08-30T07:50:55;17.80;99.90
16736;DHT22;17990;49.548;9.730;2023-08-30T07:53:22;18.00;99.90
16736;DHT22;17990;49.548;9.730;2023-08-30T07:55:49;18.10;99.90
16736;DHT22;17990;49.548;9.730;2023-08-30T07:58:17;18.10;99.90
16736;DHT22;17990;49.548;9.730;2023-08-30T08:00:45;18.10;99.90
16736;DHT22;17990;49.548;9.730;2023-08-30T08:03:12;18.40;99.90
16736;DHT22;17990;49.548;9.730;2023-08-30T08:05:38;18.40;99.90
16736;DHT22;17990;49.548;9.730;2023-08-30T08:08:07;18.30;99.90
16736;DHT22;17990;49.548;9.730;2023-08-30T08:10:36;18.50;99.90
16736;DHT22;17990;49.548;9.730;2023-08-30T08:13:03;18.50;99.90
16736;DHT22;17990;49.548;9.730;2023-08-30T08:15:30;18.50;99.90
16736;DHT22;17990;49.548;9.730;2023-08-30T08:17:59;18.70;99.90
16736;DHT22;17990;49.548;9.730;2023-08-30T08:20:26;18.80;99.90
16736;DHT22;17990;49.548;9.730;2023-08-30T08:22:52;18.90;99.90
16736;DHT22;17990;49.548;9.730;2023-08-30T08:25:19;19.10;99.90
16736;DHT22;17990;49.548;9.730;2023-08-30T08:27:47;18.90;99.90
16736;DHT22;17990;49.548;9.730;2023-08-30T08:30:14;18.70;99.90
16736;DHT22;17990;49.548;9.730;2023-08-30T08:32:41;18.60;99.90
16736;DHT22;17990;49.548;9.730;2023-08-30T08:35:09;18.60;99.90
16736;DHT22;17990;49.548;9.730;2023-08-30T08:37:36;18.70;99.90
16736;DHT22;17990;49.548;9.730;2023-08-30T08:40:03;18.70;99.90
16736;DHT22;17990;49.548;9.730;2023-08-30T08:42:34;18.90;99.90
16736;DHT22;17990;49.548;9.730;2023-08-30T08:45:02;19.10;99.90
16736;DHT22;17990;49.548;9.730;2023-08-30T08:47:30;19.10;99.90
16736;DHT22;17990;49.548;9.730;2023-08-30T08:49:57;19.10;99.90
16736;DHT22;17990;49.548;9.730;2023-08-30T08:52:26;19.20;99.90
16736;DHT22;17990;49.548;9.730;2023-08-30T08:54:54;19.30;99.90
16736;DHT22;17990;49.548;9.730;2023-08-30T08:57:21;19.40;99.90
16736;DHT22;17990;49.548;9.730;2023-08-30T08:59:48;19.40;99.90
16736;DHT22;17990;49.548;9.730;2023-08-30T09:02:16;19.50;99.90
16736;DHT22;17990;49.548;9.730;2023-08-30T09:04:43;19.80;99.90
16736;DHT22;17990;49.548;9.730;2023-08-30T09:07:10;20.10;99.90
16736;DHT22;17990;49.548;9.730;2023-08-30T09:09:38;20.20;99.90
16736;DHT22;17990;49.548;9.730;2023-08-30T09:12:05;20.30;99.90
16736;DHT22;17990;49.548;9.730;2023-08-30T09:14:32;20.60;99.90
16736;DHT22;17990;49.548;9.730;2023-08-30T09:17:01;20.60;99.90
16736;DHT22;17990;49.548;9.730;2023-08-30T09:19:28;20.30;99.90
16736;DHT22;17990;49.548;9.730;2023-08-30T09:21:56;20.10;99.90
16736;DHT22;17990;49.548;9.730;2023-08-30T09:24:23;20.10;99.90
16736;DHT22;17990;49.548;9.730;2023-08-30T09:26:53;20.10;99.90
16736;DHT22;17990;49.548;9.730;2023-08-30T09:29:21;20.00;99.90
16736;DHT22;17990;49.548;9.730;2023-08-30T09:31:51;20.00;99.90
16736;DHT22;17990;49.548;9.730;2023-08-30T09:34:22;20.10;99.90
16736;DHT22;17990;49.548;9.730;2023-08-30T09:36:49;20.20;99.90
16736;DHT22;17990;49.548;9.730;2023-08-30T09:39:16;20.40;99.90
16736;DHT22;17990;49.548;9.730;2023-08-30T09:41:44;20.60;99.90
16736;DHT22;17990;49.548;9.730;2023-08-30T09:44:13;20.70;99.90
16736;DHT22;17990;49.548;9.730;2023-08-30T09:46:41;20.90;99.90
16736;DHT22;17990;49.548;9.730;2023-08-30T09:49:09;21.20;99.90
16736;DHT22;17990;49.548;9.730;2023-08-30T09:51:38;21.50;99.90
16736;DHT22;17990;49.548;9.730;2023-08-30T09:54:13;21.60;99.90
16736;DHT22;17990;49.548;9.730;2023-08-30T09:56:41;21.30;99.90
16736;DHT22;17990;49.548;9.730;2023-08-30T09:59:08;20.90;99.90
16736;DHT22;17990;49.548;9.730;2023-08-30T10:01:38;21.10;99.90
16736;DHT22;17990;49.548;9.730;2023-08-30T10:04:07;21.40;99.90
16736;DHT22;17990;49.548;9.730;2023-08-30T10:06:35;21.40;99.90
16736;DHT22;17990;49.548;9.730;2023-08-30T10:09:02;21.60;99.90
16736;DHT22;17990;49.548;9.730;2023-08-30T10:11:31;21.60;99.90
16736;DHT22;17990;49.548;9.730;2023-08-30T10:13:59;21.70;99.90
16736;DHT22;17990;49.548;9.730;2023-08-30T10:16:26;21.70;99.90
16736;DHT22;17990;49.548;9.730;2023-08-30T10:19:06;21.90;99.90
16736;DHT22;17990;49.548;9.730;2023-08-30T10:21:35;21.60;99.90
16736;DHT22;17990;49.548;9.730;2023-08-30T10:24:04;21.60;99.90
16736;DHT22;17990;49.548;9.730;2023-08-30T10:26:32;21.60;99.90
16736;DHT22;17990;49.548;9.730;2023-08-30T10:28:59;21.60;99.90
16736;DHT22;17990;49.548;9.730;2023-08-30T10:31:27;21.60;99.90
16736;DHT22;17990;49.548;9.730;2023-08-30T10:33:55;21.70;99.90
16736;DHT22;17990;49.548;9.730;2023-08-30T10:36:22;21.80;99.90
16736;DHT22;17990;49.548;9.730;2023-08-30T10:38:50;21.90;99.90
16736;DHT22;17990;49.548;9.730;2023-08-30T10:41:21;22.00;99.90
16736;DHT22;17990;49.548;9.730;2023-08-30T10:43:50;22.10;99.90
16736;DHT22;17990;49.548;9.730;2023-08-30T10:46:29;22.20;99.90
16736;DHT22;17990;49.548;9.730;2023-08-30T10:49:08;22.10;99.90
16736;DHT22;17990;49.548;9.730;2023-08-30T10:51:37;22.10;99.90
16736;DHT22;17990;49.548;9.730;2023-08-30T10:54:10;22.20;99.90
16736;DHT22;17990;49.548;9.730;2023-08-30T10:56:48;22.20;99.90
16736;DHT22;17990;49.548;9.730;2023-08-30T10:59:18;22.40;99.90
16736;DHT22;17990;49.548;9.730;2023-08-30T11:01:46;22.50;99.90
16736;DHT22;17990;49.548;9.730;2023-08-30T11:04:15;22.50;99.90
16736;DHT22;17990;49.548;9.730;2023-08-30T11:06:43;22.50;99.90
16736;DHT22;17990;49.548;9.730;2023-08-30T11:09:12;22.80;99.90
16736;DHT22;17990;49.548;9.730;2023-08-30T11:11:39;22.70;99.90
16736;DHT22;17990;49.548;9.730;2023-08-30T11:14:07;22.80;99.90
16736;DHT22;17990;49.548;9.730;2023-08-30T11:16:34;23.00;99.90
16736;DHT22;17990;49.548;9.730;2023-08-30T11:19:01;22.90;99.90
16736;DHT22;17990;49.548;9.730;2023-08-30T11:21:30;22.80;99.90
16736;DHT22;17990;49.548;9.730;2023-08-30T11:23:57;23.00;99.90
16736;DHT22;17990;49.548;9.730;2023-08-30T11:26:24;22.90;99.90
16736;DHT22;17990;49.548;9.730;2023-08-30T11:28:51;22.90;99.90
16736;DHT22;17990;49.548;9.730;2023-08-30T11:31:19;23.00;99.90
16736;DHT22;17990;49.548;9.730;2023-08-30T11:33:51;23.10;99.90
16736;DHT22;17990;49.548;9.730;2023-08-30T11:36:18;23.20;99.90
16736;DHT22;17990;49.548;9.730;2023-08-30T11:38:48;23.30;99.90
16736;DHT22;17990;49.548;9.730;2023-08-30T11:41:15;23.50;99.90
16736;DHT22;17990;49.548;9.730;2023-08-30T11:43:43;23.50;99.90
16736;DHT22;17990;49.548;9.730;2023-08-30T11:46:10;23.50;99.90
16736;DHT22;17990;49.548;9.730;2023-08-30T11:48:38;23.40;99.90
16736;DHT22;17990;49.548;9.730;2023-08-30T11:51:06;23.40;99.90
16736;DHT22;17990;49.548;9.730;2023-08-30T11:53:33;23.50;99.90
16736;DHT22;17990;49.548;9.730;2023-08-30T11:56:02;23.10;99.90
16736;DHT22;17990;49.548;9.730;2023-08-30T11:58:32;23.10;99.90
16736;DHT22;17990;49.548;9.730;2023-08-30T12:00:59;23.30;99.90
16736;DHT22;17990;49.548;9.730;2023-08-30T12:03:27;23.50;99.90
16736;DHT22;17990;49.548;9.730;2023-08-30T12:05:54;23.40;99.90
16736;DHT22;17990;49.548;9.730;2023-08-30T12:08:23;23.40;99.90
16736;DHT22;17990;49.548;9.730;2023-08-30T12:10:50;23.60;99.90
16736;DHT22;17990;49.548;9.730;2023-08-30T12:13:22;23.70;99.90
16736;DHT22;17990;49.548;9.730;2023-08-30T12:15:49;23.90;99.90
16736;DHT22;17990;49.548;9.730;2023-08-30T12:18:16;23.70;99.90
16736;DHT22;17990;49.548;9.730;2023-08-30T12:20:52;23.70;99.90
16736;DHT22;17990;49.548;9.730;2023-08-30T12:23:20;23.80;99.90
16736;DHT22;17990;49.548;9.730;2023-08-30T12:25:57;23.70;99.90
16736;DHT22;17990;49.548;9.730;2023-08-30T12:28:25;23.80;99.90
16736;DHT22;17990;49.548;9.730;2023-08-30T12:30:52;23.90;99.90
16736;DHT22;17990;49.548;9.730;2023-08-30T12:33:19;23.90;99.90
16736;DHT22;17990;49.548;9.730;2023-08-30T12:35:46;23.90;99.90
16736;DHT22;17990;49.548;9.730;2023-08-30T12:38:13;23.70;99.90
16736;DHT22;17990;49.548;9.730;2023-08-30T12:40:43;23.70;99.90
16736;DHT22;17990;49.548;9.730;2023-08-30T12:43:10;23.80;99.90
16736;DHT22;17990;49.548;9.730;2023-08-30T12:45:39;23.90;99.90
16736;DHT22;17990;49.548;9.730;2023-08-30T12:48:06;23.90;99.90
16736;DHT22;17990;49.548;9.730;2023-08-30T12:50:33;23.60;99.90
16736;DHT22;17990;49.548;9.730;2023-08-30T12:53:00;23.40;99.90
16736;DHT22;17990;49.548;9.730;2023-08-30T12:55:27;23.60;99.90
16736;DHT22;17990;49.548;9.730;2023-08-30T12:57:54;23.60;99.90
16736;DHT22;17990;49.548;9.730;2023-08-30T13:00:21;23.40;99.90
16736;DHT22;17990;49.548;9.730;2023-08-30T13:02:49;23.60;99.90
16736;DHT22;17990;49.548;9.730;2023-08-30T13:05:16;23.50;99.90
16736;DHT22;17990;49.548;9.730;2023-08-30T13:07:43;23.70;99.90
16736;DHT22;17990;49.548;9.730;2023-08-30T13:10:10;23.70;99.90
16736;DHT22;17990;49.548;9.730;2023-08-30T13:12:37;23.90;99.90
16736;DHT22;17990;49.548;9.730;2023-08-30T13:15:06;24.10;99.90
16736;DHT22;17990;49.548;9.730;2023-08-30T13:17:33;24.10;99.90
16736;DHT22;17990;49.548;9.730;2023-08-30T13:20:01;24.10;99.90
16736;DHT22;17990;49.548;9.730;2023-08-30T13:22:28;24.00;99.90
16736;DHT22;17990;49.548;9.730;2023-08-30T13:24:55;23.90;99.90
16736;DHT22;17990;49.548;9.730;2023-08-30T13:27:21;23.80;99.90
16736;DHT22;17990;49.548;9.730;2023-08-30T13:29:49;23.50;99.90
16736;DHT22;17990;49.548;9.730;2023-08-30T13:32:16;23.70;99.90
16736;DHT22;17990;49.548;9.730;2023-08-30T13:34:42;23.60;99.90
16736;DHT22;17990;49.548;9.730;2023-08-30T13:37:12;23.40;99.90
16736;DHT22;17990;49.548;9.730;2023-08-30T13:39:39;23.70;99.90
16736;DHT22;17990;49.548;9.730;2023-08-30T13:42:06;24.10;99.90
16736;DHT22;17990;49.548;9.730;2023-08-30T13:44:33;24.00;99.90
16736;DHT22;17990;49.548;9.730;2023-08-30T13:47:01;23.70;99.90
16736;DHT22;17990;49.548;9.730;2023-08-30T13:49:28;23.50;99.90
16736;DHT22;17990;49.548;9.730;2023-08-30T13:51:55;23.40;99.90
16736;DHT22;17990;49.548;9.730;2023-08-30T13:54:23;23.40;99.90
16736;DHT22;17990;49.548;9.730;2023-08-30T13:56:50;23.70;99.90
16736;DHT22;17990;49.548;9.730;2023-08-30T13:59:17;23.90;99.90
16736;DHT22;17990;49.548;9.730;2023-08-30T14:01:43;24.20;99.90
16736;DHT22;17990;49.548;9.730;2023-08-30T14:04:10;24.20;99.90
16736;DHT22;17990;49.548;9.730;2023-08-30T14:06:37;24.20;99.90
16736;DHT22;17990;49.548;9.730;2023-08-30T14:09:04;24.10;99.90
16736;DHT22;17990;49.548;9.730;2023-08-30T14:11:35;24.10;99.90
16736;DHT22;17990;49.548;9.730;2023-08-30T14:14:03;23.90;99.90
16736;DHT22;17990;49.548;9.730;2023-08-30T14:16:30;23.60;99.90
16736;DHT22;17990;49.548;9.730;2023-08-30T14:18:56;23.70;99.90
16736;DHT22;17990;49.548;9.730;2023-08-30T14:21:25;23.70;99.90
16736;DHT22;17990;49.548;9.730;2023-08-30T14:23:52;23.70;99.90
16736;DHT22;17990;49.548;9.730;2023-08-30T14:26:19;23.70;99.90
16736;DHT22;17990;49.548;9.730;2023-08-30T14:28:47;23.60;99.90
16736;DHT22;17990;49.548;9.730;2023-08-30T14:31:14;23.50;99.90
16736;DHT22;17990;49.548;9.730;2023-08-30T14:33:43;23.50;99.90
16736;DHT22;17990;49.548;9.730;2023-08-30T14:36:11;23.40;99.90
16736;DHT22;17990;49.548;9.730;2023-08-30T14:38:38;23.30;99.90
16736;DHT22;17990;49.548;9.730;2023-08-30T14:41:06;23.50;99.90
16736;DHT22;17990;49.548;9.730;2023-08-30T14:43:32;23.60;99.90
16736;DHT22;17990;49.548;9.730;2023-08-30T14:46:01;23.50;99.90
16736;DHT22;17990;49.548;9.730;2023-08-30T14:48:28;23.50;99.90
16736;DHT22;17990;49.548;9.730;2023-08-30T14:50:55;23.70;99.90
16736;DHT22;17990;49.548;9.730;2023-08-30T14:53:22;23.90;99.90
16736;DHT22;17990;49.548;9.730;2023-08-30T14:55:49;23.80;99.90
16736;DHT22;17990;49.548;9.730;2023-08-30T14:58:16;23.80;99.90
16736;DHT22;17990;49.548;9.730;2023-08-30T15:00:42;23.70;99.90
16736;DHT22;17990;49.548;9.730;2023-08-30T15:03:11;23.70;99.90
16736;DHT22;17990;49.548;9.730;2023-08-30T15:05:38;23.60;99.90
16736;DHT22;17990;49.548;9.730;2023-08-30T15:08:05;23.60;99.90
16736;DHT22;17990;49.548;9.730;2023-08-30T15:10:32;23.70;99.90
16736;DHT22;17990;49.548;9.730;2023-08-30T15:12:59;23.70;99.90
16736;DHT22;17990;49.548;9.730;2023-08-30T15:15:25;23.40;99.90
16736;DHT22;17990;49.548;9.730;2023-08-30T15:17:52;23.50;99.90
16736;DHT22;17990;49.548;9.730;2023-08-30T15:20:20;23.40;99.90
16736;DHT22;17990;49.548;9.730;2023-08-30T15:22:47;23.30;99.90
16736;DHT22;17990;49.548;9.730;2023-08-30T15:25:14;23.20;99.90
16736;DHT22;17990;49.548;9.730;2023-08-30T15:27:41;23.20;99.90
16736;DHT22;17990;49.548;9.730;2023-08-30T15:30:10;23.40;99.90
16736;DHT22;17990;49.548;9.730;2023-08-30T15:32:37;23.40;99.90